PWSweather.com
Personal Weather Stations
Station Observations
CANDIOTINO
Barrio Candioti Norte, Santa FeAR 3000

Barrio Candioti NorteSanta FeAR 3000

Lat: -31.632778, Lon: -60.695556

Elevation: 69

Station Type: WH-1081

http://www.eltiempoensantafe.com.ar

High Low Average
Temperature 55.8°F13.2°C 48.2°F9.0°C 52.3°F11.3°C
Dew Point 53.6°F12.0°C 40.4°F4.7°C 47.5°F8.6°C
Winds 16.8 mph 27.0 kmh 2.2 mph 3.5 kmh 7.0 mph SE11.3 kmh SE
Wind Gusts 21.3 mph34.3 kmh 8.3 mph13.4 kmh 14.0 mph22.5 kmh
Humidity 95% 64% 84%
Pressure 30.22 in1023.4 mb 30.05 in1017.6 mb -
Precipitation 0.07 in1.8 mm - -
Hour Temp Dew Point Humidity Winds Wind Gusts Pressure Precip Precip Rate Daily Precip Total
12:00 AM 52.9°F11.6°C 41.0°F5.0°C 64% 4.5 mph ESE7.2 kmh ESE 13.6 mph21.9 kmh 30.22 in1023.4 mb 0.00 in0.0 mm 0.00 in0.0 mm 0.00 in0.0 mm
12:15 AM 52.7°F11.5°C 40.9°F4.9°C 64% 9.2 mph SE14.8 kmh SE 16.8 mph27.0 kmh 30.21 in1023.0 mb 0.00 in0.0 mm 0.00 in0.0 mm 0.00 in0.0 mm
12:30 AM 52.3°F11.3°C 40.5°F4.7°C 64% 8.3 mph SE13.4 kmh SE 19.7 mph31.7 kmh 30.22 in1023.4 mb 0.00 in0.0 mm 0.00 in0.0 mm 0.00 in0.0 mm
12:45 AM 52.3°F11.3°C 40.9°F4.9°C 65% 7.6 mph SE12.2 kmh SE 15.9 mph25.6 kmh 30.21 in1023.0 mb 0.00 in0.0 mm 0.00 in0.0 mm 0.00 in0.0 mm
01:00 AM 52.2°F11.2°C 40.4°F4.7°C 64% 13.0 mph SE20.9 kmh SE 15.9 mph25.6 kmh 30.22 in1023.4 mb 0.00 in0.0 mm 0.00 in0.0 mm 0.00 in0.0 mm
01:15 AM 52.0°F11.1°C 40.6°F4.8°C 65% 6.0 mph SE9.7 kmh SE 15.2 mph24.5 kmh 30.22 in1023.4 mb 0.00 in0.0 mm 0.00 in0.0 mm 0.00 in0.0 mm
01:30 AM 51.8°F11.0°C 40.4°F4.7°C 65% 8.3 mph SE13.4 kmh SE 16.8 mph27.0 kmh 30.22 in1023.4 mb 0.00 in0.0 mm 0.00 in0.0 mm 0.00 in0.0 mm
01:45 AM 51.6°F10.9°C 40.6°F4.8°C 66% 8.3 mph SE13.4 kmh SE 14.5 mph23.3 kmh 30.21 in1023.0 mb 0.00 in0.0 mm 0.00 in0.0 mm 0.00 in0.0 mm
02:00 AM 51.4°F10.8°C 40.9°F4.9°C 67% 6.0 mph SE9.7 kmh SE 15.9 mph25.6 kmh 30.22 in1023.4 mb 0.00 in0.0 mm 0.00 in0.0 mm 0.00 in0.0 mm
02:15 AM 51.4°F10.8°C 41.2°F5.1°C 68% 7.6 mph SE12.2 kmh SE 20.6 mph33.2 kmh 30.21 in1023.0 mb 0.00 in0.0 mm 0.00 in0.0 mm 0.00 in0.0 mm
02:30 AM 51.3°F10.7°C 41.4°F5.2°C 69% 9.2 mph SE14.8 kmh SE 15.2 mph24.5 kmh 30.21 in1023.0 mb 0.00 in0.0 mm 0.00 in0.0 mm 0.00 in0.0 mm
02:45 AM 50.9°F10.5°C 41.8°F5.4°C 71% 4.5 mph SE7.2 kmh SE 11.4 mph18.3 kmh 30.20 in1022.7 mb 0.00 in0.0 mm 0.00 in0.0 mm 0.00 in0.0 mm
03:00 AM 50.7°F10.4°C 42.0°F5.6°C 72% 6.0 mph SE9.7 kmh SE 13.0 mph20.9 kmh 30.20 in1022.7 mb 0.00 in0.0 mm 0.00 in0.0 mm 0.00 in0.0 mm
03:15 AM 50.0°F10.0°C 42.0°F5.6°C 74% 12.1 mph SE19.5 kmh SE 16.8 mph27.0 kmh 30.20 in1022.7 mb 0.00 in0.0 mm 0.00 in0.0 mm 0.00 in0.0 mm
03:30 AM 49.6°F9.8°C 42.4°F5.8°C 76% 6.0 mph SE9.7 kmh SE 15.9 mph25.6 kmh 30.20 in1022.7 mb 0.00 in0.0 mm 0.00 in0.0 mm 0.00 in0.0 mm
03:45 AM 49.1°F9.5°C 42.5°F5.8°C 78% 9.8 mph SE15.8 kmh SE 15.9 mph25.6 kmh 30.18 in1022.0 mb 0.00 in0.0 mm 0.00 in0.0 mm 0.00 in0.0 mm
04:00 AM 48.9°F9.4°C 42.4°F5.8°C 78% 7.6 mph SE12.2 kmh SE 18.3 mph29.5 kmh 30.18 in1022.0 mb 0.00 in0.0 mm 0.00 in0.0 mm 0.00 in0.0 mm
04:15 AM 49.3°F9.6°C 42.4°F5.8°C 77% 6.0 mph SE9.7 kmh SE 15.2 mph24.5 kmh 30.18 in1022.0 mb 0.00 in0.0 mm 0.00 in0.0 mm 0.00 in0.0 mm
04:30 AM 48.9°F9.4°C 42.4°F5.8°C 78% 9.8 mph SSE15.8 kmh SSE 21.3 mph34.3 kmh 30.17 in1021.7 mb 0.00 in0.0 mm 0.00 in0.0 mm 0.00 in0.0 mm
04:45 AM 48.9°F9.4°C 42.7°F5.9°C 79% 13.0 mph SE20.9 kmh SE 19.7 mph31.7 kmh 30.16 in1021.3 mb 0.00 in0.0 mm 0.00 in0.0 mm 0.00 in0.0 mm
05:00 AM 48.7°F9.3°C 43.2°F6.2°C 81% 16.8 mph SE27.0 kmh SE 21.3 mph34.3 kmh 30.16 in1021.3 mb 0.00 in0.0 mm 0.00 in0.0 mm 0.00 in0.0 mm
05:15 AM 48.4°F9.1°C 43.5°F6.4°C 83% 12.1 mph SE19.5 kmh SE 18.3 mph29.5 kmh 30.16 in1021.3 mb 0.00 in0.0 mm 0.00 in0.0 mm 0.00 in0.0 mm
05:30 AM 48.2°F9.0°C 43.9°F6.6°C 85% 7.6 mph SE12.2 kmh SE 13.0 mph20.9 kmh 30.16 in1021.3 mb 0.00 in0.0 mm 0.00 in0.0 mm 0.00 in0.0 mm
05:45 AM 48.2°F9.0°C 43.6°F6.4°C 84% 8.3 mph SE13.4 kmh SE 16.8 mph27.0 kmh 30.17 in1021.7 mb 0.00 in0.0 mm 0.00 in0.0 mm 0.00 in0.0 mm
06:00 AM 48.4°F9.1°C 42.8°F6.0°C 81% 6.9 mph SSE11.1 kmh SSE 18.3 mph29.5 kmh 30.17 in1021.7 mb 0.00 in0.0 mm 0.00 in0.0 mm 0.00 in0.0 mm
06:15 AM 48.4°F9.1°C 42.2°F5.7°C 79% 5.4 mph SE8.7 kmh SE 16.8 mph27.0 kmh 30.17 in1021.7 mb 0.00 in0.0 mm 0.00 in0.0 mm 0.00 in0.0 mm
06:30 AM 48.4°F9.1°C 42.2°F5.7°C 79% 6.0 mph SE9.7 kmh SE 17.4 mph28.0 kmh 30.17 in1021.7 mb 0.00 in0.0 mm 0.00 in0.0 mm 0.00 in0.0 mm
06:45 AM 48.2°F9.0°C 42.3°F5.7°C 80% 4.5 mph SE7.2 kmh SE 20.6 mph33.2 kmh 30.18 in1022.0 mb 0.00 in0.0 mm 0.00 in0.0 mm 0.00 in0.0 mm
07:00 AM 48.4°F9.1°C 42.8°F6.0°C 81% 7.6 mph SSE12.2 kmh SSE 16.8 mph27.0 kmh 30.19 in1022.4 mb 0.00 in0.0 mm 0.00 in0.0 mm 0.00 in0.0 mm
07:15 AM 48.6°F9.2°C 42.7°F5.9°C 80% 9.2 mph SE14.8 kmh SE 18.3 mph29.5 kmh 30.19 in1022.4 mb 0.00 in0.0 mm 0.00 in0.0 mm 0.00 in0.0 mm
07:30 AM 48.7°F9.3°C 43.2°F6.2°C 81% 7.6 mph SSE12.2 kmh SSE 15.9 mph25.6 kmh 30.20 in1022.7 mb 0.00 in0.0 mm 0.00 in0.0 mm 0.00 in0.0 mm
07:45 AM 48.7°F9.3°C 43.2°F6.2°C 81% 6.9 mph SE11.1 kmh SE 15.9 mph25.6 kmh 30.18 in1022.0 mb 0.00 in0.0 mm 0.00 in0.0 mm 0.00 in0.0 mm
08:00 AM 48.7°F9.3°C 44.1°F6.7°C 84% 6.0 mph SE9.7 kmh SE 19.0 mph30.6 kmh 30.20 in1022.7 mb 0.00 in0.0 mm 0.00 in0.0 mm 0.00 in0.0 mm
08:15 AM 48.7°F9.3°C 44.4°F6.9°C 85% 8.3 mph SE13.4 kmh SE 15.9 mph25.6 kmh 30.19 in1022.4 mb 0.00 in0.0 mm 0.00 in0.0 mm 0.00 in0.0 mm
08:30 AM 48.7°F9.3°C 44.7°F7.1°C 86% 7.6 mph SSE12.2 kmh SSE 16.8 mph27.0 kmh 30.19 in1022.4 mb 0.00 in0.0 mm 0.00 in0.0 mm 0.00 in0.0 mm
08:45 AM 48.7°F9.3°C 45.0°F7.2°C 87% 7.6 mph SE12.2 kmh SE 12.1 mph19.5 kmh 30.19 in1022.4 mb 0.00 in0.0 mm 0.00 in0.0 mm 0.00 in0.0 mm
09:00 AM 48.6°F9.2°C 44.9°F7.2°C 87% 3.8 mph SE6.1 kmh SE 15.2 mph24.5 kmh 30.21 in1023.0 mb 0.01 in0.3 mm 0.01 in0.3 mm 0.01 in0.3 mm
09:15 AM 48.9°F9.4°C 45.5°F7.5°C 88% 4.5 mph SE7.2 kmh SE 13.0 mph20.9 kmh 30.21 in1023.0 mb 0.01 in0.3 mm 0.00 in0.0 mm 0.01 in0.3 mm
09:30 AM 49.1°F9.5°C 45.7°F7.6°C 88% 6.9 mph SE11.1 kmh SE 13.6 mph21.9 kmh 30.19 in1022.4 mb 0.01 in0.3 mm 0.00 in0.0 mm 0.01 in0.3 mm
09:45 AM 49.3°F9.6°C 45.6°F7.6°C 87% 6.9 mph SE11.1 kmh SE 13.6 mph21.9 kmh 30.19 in1022.4 mb 0.01 in0.3 mm 0.00 in0.0 mm 0.01 in0.3 mm
10:00 AM 50.0°F10.0°C 46.3°F7.9°C 87% 6.9 mph SE11.1 kmh SE 15.2 mph24.5 kmh 30.19 in1022.4 mb 0.00 in0.0 mm 0.00 in0.0 mm 0.01 in0.3 mm
10:15 AM 50.2°F10.1°C 46.5°F8.1°C 87% 4.5 mph SE7.2 kmh SE 15.2 mph24.5 kmh 30.18 in1022.0 mb 0.00 in0.0 mm 0.00 in0.0 mm 0.01 in0.3 mm
10:30 AM 50.4°F10.2°C 46.6°F8.1°C 87% 4.5 mph SE7.2 kmh SE 13.0 mph20.9 kmh 30.19 in1022.4 mb 0.00 in0.0 mm 0.00 in0.0 mm 0.01 in0.3 mm
10:45 AM 50.9°F10.5°C 46.9°F8.3°C 86% 6.9 mph SE11.1 kmh SE 12.1 mph19.5 kmh 30.18 in1022.0 mb 0.00 in0.0 mm 0.00 in0.0 mm 0.01 in0.3 mm
11:00 AM 50.9°F10.5°C 46.9°F8.3°C 86% 7.6 mph SE12.2 kmh SE 13.0 mph20.9 kmh 30.18 in1022.0 mb 0.00 in0.0 mm 0.00 in0.0 mm 0.01 in0.3 mm
11:15 AM 51.3°F10.7°C 46.9°F8.3°C 85% 5.4 mph ESE8.7 kmh ESE 12.1 mph19.5 kmh 30.19 in1022.4 mb 0.00 in0.0 mm 0.00 in0.0 mm 0.01 in0.3 mm
11:30 AM 51.4°F10.8°C 47.4°F8.6°C 86% 4.5 mph SE7.2 kmh SE 11.4 mph18.3 kmh 30.18 in1022.0 mb 0.01 in0.3 mm 0.04 in1.0 mm 0.02 in0.5 mm
11:45 AM 51.6°F10.9°C 47.9°F8.8°C 87% 6.9 mph ESE11.1 kmh ESE 13.0 mph20.9 kmh 30.17 in1021.7 mb 0.01 in0.3 mm 0.00 in0.0 mm 0.02 in0.5 mm
12:00 PM 52.0°F11.1°C 47.9°F8.8°C 86% 5.4 mph SE8.7 kmh SE 14.5 mph23.3 kmh 30.16 in1021.3 mb 0.01 in0.3 mm 0.00 in0.0 mm 0.02 in0.5 mm
12:15 PM 52.0°F11.1°C 48.2°F9.0°C 87% 6.0 mph ESE9.7 kmh ESE 12.1 mph19.5 kmh 30.16 in1021.3 mb 0.01 in0.3 mm 0.00 in0.0 mm 0.02 in0.5 mm
12:30 PM 52.2°F11.2°C 48.4°F9.1°C 87% 4.5 mph SE7.2 kmh SE 13.6 mph21.9 kmh 30.15 in1021.0 mb 0.00 in0.0 mm 0.00 in0.0 mm 0.02 in0.5 mm
12:45 PM 52.7°F11.5°C 49.3°F9.6°C 88% 5.4 mph ESE8.7 kmh ESE 11.4 mph18.3 kmh 30.15 in1021.0 mb 0.00 in0.0 mm 0.00 in0.0 mm 0.02 in0.5 mm
01:00 PM 53.1°F11.7°C 49.6°F9.8°C 88% 6.0 mph SE9.7 kmh SE 10.7 mph17.2 kmh 30.14 in1020.7 mb 0.00 in0.0 mm 0.00 in0.0 mm 0.02 in0.5 mm
01:15 PM 53.2°F11.8°C 49.5°F9.7°C 87% 6.0 mph ESE9.7 kmh ESE 13.6 mph21.9 kmh 30.14 in1020.7 mb 0.01 in0.3 mm 0.04 in1.0 mm 0.04 in1.0 mm
01:30 PM 53.4°F11.9°C 49.7°F9.8°C 87% 4.5 mph ESE7.2 kmh ESE 13.0 mph20.9 kmh 30.13 in1020.3 mb 0.01 in0.3 mm 0.00 in0.0 mm 0.04 in1.0 mm
01:45 PM 53.6°F12.0°C 49.5°F9.7°C 86% 9.2 mph ESE14.8 kmh ESE 13.0 mph20.9 kmh 30.13 in1020.3 mb 0.01 in0.3 mm 0.00 in0.0 mm 0.04 in1.0 mm
02:00 PM 54.0°F12.2°C 49.6°F9.8°C 85% 5.4 mph SE8.7 kmh SE 15.9 mph25.6 kmh 30.13 in1020.3 mb 0.01 in0.3 mm 0.00 in0.0 mm 0.04 in1.0 mm
02:15 PM 53.8°F12.1°C 49.7°F9.8°C 86% 8.3 mph SE13.4 kmh SE 16.8 mph27.0 kmh 30.13 in1020.3 mb 0.00 in0.0 mm 0.00 in0.0 mm 0.04 in1.0 mm
02:30 PM 53.6°F12.0°C 50.1°F10.1°C 88% 4.5 mph ESE7.2 kmh ESE 14.5 mph23.3 kmh 30.13 in1020.3 mb 0.00 in0.0 mm 0.00 in0.0 mm 0.04 in1.0 mm
02:45 PM 53.8°F12.1°C 50.6°F10.3°C 89% 3.8 mph SE6.1 kmh SE 9.2 mph14.8 kmh 30.12 in1020.0 mb 0.00 in0.0 mm 0.00 in0.0 mm 0.04 in1.0 mm
03:00 PM 53.6°F12.0°C 51.0°F10.6°C 91% 7.6 mph ESE12.2 kmh ESE 13.6 mph21.9 kmh 30.11 in1019.6 mb 0.01 in0.3 mm 0.01 in0.3 mm 0.05 in1.3 mm
03:15 PM 53.8°F12.1°C 51.5°F10.8°C 92% 9.2 mph SE14.8 kmh SE 12.1 mph19.5 kmh 30.11 in1019.6 mb 0.01 in0.3 mm 0.00 in0.0 mm 0.05 in1.3 mm
03:30 PM 54.1°F12.3°C 51.9°F11.1°C 92% 7.6 mph SE12.2 kmh SE 13.0 mph20.9 kmh 30.09 in1019.0 mb 0.01 in0.3 mm 0.00 in0.0 mm 0.05 in1.3 mm
03:45 PM 54.0°F12.2°C 51.7°F10.9°C 92% 9.2 mph SE14.8 kmh SE 13.0 mph20.9 kmh 30.10 in1019.3 mb 0.01 in0.3 mm 0.00 in0.0 mm 0.05 in1.3 mm
04:00 PM 54.0°F12.2°C 52.0°F11.1°C 93% 4.5 mph SE7.2 kmh SE 12.1 mph19.5 kmh 30.09 in1019.0 mb 0.00 in0.0 mm 0.00 in0.0 mm 0.05 in1.3 mm
04:15 PM 54.3°F12.4°C 52.3°F11.3°C 93% 6.0 mph SSE9.7 kmh SSE 11.4 mph18.3 kmh 30.09 in1019.0 mb 0.00 in0.0 mm 0.00 in0.0 mm 0.05 in1.3 mm
04:30 PM 54.5°F12.5°C 52.5°F11.4°C 93% 6.0 mph SE9.7 kmh SE 12.1 mph19.5 kmh 30.09 in1019.0 mb 0.00 in0.0 mm 0.00 in0.0 mm 0.05 in1.3 mm
04:45 PM 54.7°F12.6°C 52.4°F11.3°C 92% 3.1 mph SE5.0 kmh SE 14.5 mph23.3 kmh 30.09 in1019.0 mb 0.00 in0.0 mm 0.00 in0.0 mm 0.05 in1.3 mm
05:00 PM 55.0°F12.8°C 52.8°F11.6°C 92% 5.4 mph SE8.7 kmh SE 10.7 mph17.2 kmh 30.08 in1018.6 mb 0.00 in0.0 mm 0.00 in0.0 mm 0.05 in1.3 mm
05:15 PM 55.0°F12.8°C 52.5°F11.4°C 91% 6.0 mph SE9.7 kmh SE 13.0 mph20.9 kmh 30.07 in1018.3 mb 0.00 in0.0 mm 0.00 in0.0 mm 0.05 in1.3 mm
05:30 PM 55.6°F13.1°C 52.4°F11.3°C 89% 7.6 mph SE12.2 kmh SE 11.4 mph18.3 kmh 30.07 in1018.3 mb 0.00 in0.0 mm 0.00 in0.0 mm 0.05 in1.3 mm
05:45 PM 55.6°F13.1°C 52.1°F11.2°C 88% 6.0 mph SE9.7 kmh SE 13.6 mph21.9 kmh 30.07 in1018.3 mb 0.00 in0.0 mm 0.00 in0.0 mm 0.05 in1.3 mm
06:00 PM 55.6°F13.1°C 52.1°F11.2°C 88% 4.5 mph SE7.2 kmh SE 13.0 mph20.9 kmh 30.07 in1018.3 mb 0.00 in0.0 mm 0.00 in0.0 mm 0.05 in1.3 mm
06:15 PM 55.4°F13.0°C 52.2°F11.2°C 89% 5.4 mph SE8.7 kmh SE 13.0 mph20.9 kmh 30.07 in1018.3 mb 0.00 in0.0 mm 0.00 in0.0 mm 0.05 in1.3 mm
06:30 PM 55.6°F13.1°C 52.4°F11.3°C 89% 5.4 mph ESE8.7 kmh ESE 12.1 mph19.5 kmh 30.06 in1017.9 mb 0.00 in0.0 mm 0.00 in0.0 mm 0.05 in1.3 mm
06:45 PM 55.4°F13.0°C 52.2°F11.2°C 89% 9.8 mph ESE15.8 kmh ESE 15.9 mph25.6 kmh 30.06 in1017.9 mb 0.00 in0.0 mm 0.00 in0.0 mm 0.05 in1.3 mm
07:00 PM 55.0°F12.8°C 52.5°F11.4°C 91% 7.6 mph SE12.2 kmh SE 18.3 mph29.5 kmh 30.06 in1017.9 mb 0.00 in0.0 mm 0.00 in0.0 mm 0.05 in1.3 mm
07:15 PM 55.0°F12.8°C 52.5°F11.4°C 91% 6.9 mph ESE11.1 kmh ESE 15.9 mph25.6 kmh 30.06 in1017.9 mb 0.00 in0.0 mm 0.00 in0.0 mm 0.05 in1.3 mm
07:30 PM 55.2°F12.9°C 52.6°F11.4°C 91% 5.4 mph SE8.7 kmh SE 12.1 mph19.5 kmh 30.06 in1017.9 mb 0.00 in0.0 mm 0.00 in0.0 mm 0.05 in1.3 mm
07:45 PM 55.4°F13.0°C 52.2°F11.2°C 89% 8.3 mph SE13.4 kmh SE 13.6 mph21.9 kmh 30.05 in1017.6 mb 0.00 in0.0 mm 0.00 in0.0 mm 0.05 in1.3 mm
08:00 PM 55.6°F13.1°C 52.4°F11.3°C 89% 9.8 mph SE15.8 kmh SE 13.6 mph21.9 kmh 30.07 in1018.3 mb 0.00 in0.0 mm 0.00 in0.0 mm 0.05 in1.3 mm
08:15 PM 55.8°F13.2°C 52.3°F11.3°C 88% 6.9 mph SE11.1 kmh SE 15.2 mph24.5 kmh 30.07 in1018.3 mb 0.00 in0.0 mm 0.00 in0.0 mm 0.05 in1.3 mm
08:30 PM 55.8°F13.2°C 52.3°F11.3°C 88% 3.8 mph SE6.1 kmh SE 13.0 mph20.9 kmh 30.07 in1018.3 mb 0.00 in0.0 mm 0.00 in0.0 mm 0.05 in1.3 mm
08:45 PM 55.8°F13.2°C 52.3°F11.3°C 88% 4.5 mph SE7.2 kmh SE 12.1 mph19.5 kmh 30.07 in1018.3 mb 0.00 in0.0 mm 0.00 in0.0 mm 0.05 in1.3 mm
09:00 PM 55.6°F13.1°C 52.4°F11.3°C 89% 2.2 mph SE3.5 kmh SE 12.1 mph19.5 kmh 30.07 in1018.3 mb 0.00 in0.0 mm 0.00 in0.0 mm 0.05 in1.3 mm
09:15 PM 55.4°F13.0°C 52.5°F11.4°C 90% 5.4 mph SE8.7 kmh SE 11.4 mph18.3 kmh 30.08 in1018.6 mb 0.00 in0.0 mm 0.00 in0.0 mm 0.05 in1.3 mm
09:30 PM 55.4°F13.0°C 52.5°F11.4°C 90% 6.9 mph SE11.1 kmh SE 12.1 mph19.5 kmh 30.09 in1019.0 mb 0.01 in0.3 mm 0.04 in1.0 mm 0.06 in1.5 mm
09:45 PM 55.2°F12.9°C 52.6°F11.4°C 91% 6.0 mph SE9.7 kmh SE 11.4 mph18.3 kmh 30.09 in1019.0 mb 0.01 in0.3 mm 0.00 in0.0 mm 0.06 in1.5 mm
10:00 PM 55.4°F13.0°C 52.5°F11.4°C 90% 7.6 mph SE12.2 kmh SE 10.7 mph17.2 kmh 30.09 in1019.0 mb 0.01 in0.3 mm 0.00 in0.0 mm 0.06 in1.5 mm
10:15 PM 55.4°F13.0°C 52.5°F11.4°C 90% 3.8 mph SE6.1 kmh SE 9.2 mph14.8 kmh 30.10 in1019.3 mb 0.01 in0.3 mm 0.00 in0.0 mm 0.06 in1.5 mm
10:30 PM 55.4°F13.0°C 52.8°F11.6°C 91% 6.0 mph SE9.7 kmh SE 10.7 mph17.2 kmh 30.10 in1019.3 mb 0.00 in0.0 mm 0.00 in0.0 mm 0.06 in1.5 mm
10:45 PM 55.2°F12.9°C 52.9°F11.6°C 92% 3.8 mph SE6.1 kmh SE 12.1 mph19.5 kmh 30.09 in1019.0 mb 0.00 in0.0 mm 0.00 in0.0 mm 0.06 in1.5 mm
11:00 PM 55.0°F12.8°C 53.1°F11.7°C 93% 5.4 mph SE8.7 kmh SE 8.3 mph13.4 kmh 30.09 in1019.0 mb 0.00 in0.0 mm 0.00 in0.0 mm 0.06 in1.5 mm
11:15 PM 55.0°F12.8°C 53.4°F11.9°C 94% 6.0 mph SE9.7 kmh SE 11.4 mph18.3 kmh 30.09 in1019.0 mb 0.00 in0.0 mm 0.00 in0.0 mm 0.06 in1.5 mm
11:30 PM 55.0°F12.8°C 53.6°F12.0°C 95% 3.8 mph SE6.1 kmh SE 9.2 mph14.8 kmh 30.08 in1018.6 mb 0.00 in0.0 mm 0.00 in0.0 mm 0.06 in1.5 mm
11:45 PM 55.0°F12.8°C 53.6°F12.0°C 95% 4.5 mph SE7.2 kmh SE 9.8 mph15.8 kmh 30.09 in1019.0 mb 0.01 in0.3 mm 0.04 in1.0 mm 0.07 in1.8 mm